createdAt,value
2024-03-22T00:01:01.369Z,13.70
2024-03-22T00:04:30.270Z,13.68
2024-03-22T00:07:59.522Z,13.66
2024-03-22T00:11:28.198Z,13.63
2024-03-22T00:14:37.302Z,13.58
2024-03-22T00:17:46.692Z,13.56
2024-03-22T00:21:09.002Z,13.53
2024-03-22T00:24:03.259Z,13.51
2024-03-22T00:27:12.044Z,13.48
2024-03-22T00:30:30.999Z,13.44
2024-03-22T00:34:00.276Z,13.38
2024-03-22T00:37:14.887Z,13.33
2024-03-22T00:40:44.388Z,13.32
2024-03-22T00:43:46.563Z,13.27
2024-03-22T00:47:09.275Z,13.22
2024-03-22T00:50:38.270Z,13.19
2024-03-22T00:53:47.164Z,13.15
2024-03-22T00:57:15.820Z,13.11
2024-03-22T01:00:17.822Z,13.07
2024-03-22T01:03:36.838Z,13.03
2024-03-22T01:06:29.332Z,13.00
2024-03-22T01:09:38.156Z,12.97
2024-03-22T01:12:46.016Z,12.96
2024-03-22T01:16:14.978Z,12.92
2024-03-22T01:19:43.787Z,12.89
2024-03-22T01:22:55.500Z,12.87
2024-03-22T01:25:59.774Z,12.84
2024-03-22T01:29:19.790Z,12.80
2024-03-22T01:32:11.979Z,12.75
2024-03-22T01:35:20.483Z,12.72
2024-03-22T01:38:49.282Z,12.68
2024-03-22T01:42:10.974Z,12.67
2024-03-22T01:45:31.300Z,12.65
2024-03-22T01:48:33.470Z,12.63
2024-03-22T01:51:45.463Z,12.61
2024-03-22T01:55:13.854Z,12.61
2024-03-22T01:58:33.341Z,12.63
2024-03-22T02:02:01.817Z,12.65
2024-03-22T02:05:30.664Z,12.68
2024-03-22T02:08:42.719Z,12.72
2024-03-22T02:12:11.513Z,12.75
2024-03-22T02:15:35.097Z,12.78
2024-03-22T02:18:44.685Z,12.80
2024-03-22T02:21:53.485Z,12.81
2024-03-22T02:24:59.479Z,12.83
2024-03-22T02:28:29.433Z,12.84
2024-03-22T02:31:38.198Z,12.87
2024-03-22T02:34:06.704Z,12.88
2024-03-22T02:36:40.225Z,12.90
2024-03-22T02:39:11.811Z,12.91
2024-03-22T02:41:51.383Z,12.94
2024-03-22T02:44:46.425Z,12.97
2024-03-22T02:47:30.899Z,12.99
2024-03-22T02:50:03.463Z,13.00
2024-03-22T02:52:33.138Z,13.01
2024-03-22T02:55:02.107Z,13.01
2024-03-22T02:57:34.728Z,13.01
2024-03-22T03:00:03.497Z,13.00
2024-03-22T03:02:32.310Z,13.01
2024-03-22T03:05:02.448Z,13.04
2024-03-22T03:07:36.867Z,13.07
2024-03-22T03:10:08.758Z,13.08
2024-03-22T03:12:37.450Z,13.10
2024-03-22T03:15:06.354Z,13.15
2024-03-22T03:17:46.103Z,13.17
2024-03-22T03:20:16.062Z,13.20
2024-03-22T03:22:54.996Z,13.23
2024-03-22T03:25:32.538Z,13.24
2024-03-22T03:28:34.769Z,13.25
2024-03-22T03:31:06.577Z,13.28
2024-03-22T03:33:35.329Z,13.28
2024-03-22T03:36:10.563Z,13.27
2024-03-22T03:39:09.550Z,13.25
2024-03-22T03:41:58.869Z,13.24
2024-03-22T03:45:27.733Z,13.23
2024-03-22T03:48:49.588Z,13.20
2024-03-22T03:52:18.670Z,13.16
2024-03-22T03:55:47.618Z,13.10
2024-03-22T03:59:17.398Z,13.05
2024-03-22T04:02:48.012Z,12.98
2024-03-22T04:06:18.333Z,12.92
2024-03-22T04:09:47.179Z,12.83
2024-03-22T04:13:15.666Z,12.69
2024-03-22T04:16:44.463Z,12.60
2024-03-22T04:20:06.025Z,12.53
2024-03-22T04:23:35.002Z,12.45
2024-03-22T04:26:40.082Z,12.38
2024-03-22T04:30:09.253Z,12.32
2024-03-22T04:33:37.791Z,12.26
2024-03-22T04:36:47.413Z,12.20
2024-03-22T04:40:12.171Z,12.15
2024-03-22T04:43:24.516Z,12.12
2024-03-22T04:46:52.859Z,12.09
2024-03-22T04:50:22.322Z,12.05
2024-03-22T04:53:51.458Z,12.01
2024-03-22T04:57:20.172Z,11.96
2024-03-22T05:00:00.326Z,11.88
2024-03-22T05:03:23.652Z,11.83
2024-03-22T05:06:20.690Z,11.77
2024-03-22T05:09:49.851Z,11.69
2024-03-22T05:13:18.827Z,11.62
2024-03-22T05:16:47.562Z,11.56
2024-03-22T05:19:52.760Z,11.54
2024-03-22T05:23:17.952Z,11.53
2024-03-22T05:26:40.039Z,11.54
2024-03-22T05:29:44.420Z,11.57
2024-03-22T05:32:39.121Z,11.60
2024-03-22T05:35:48.257Z,11.61
2024-03-22T05:38:17.156Z,11.64
2024-03-22T05:41:34.909Z,11.65
2024-03-22T05:44:44.165Z,11.67
2024-03-22T05:48:04.457Z,11.69
2024-03-22T05:51:32.924Z,11.73
2024-03-22T05:54:00.997Z,11.76
2024-03-22T05:56:44.314Z,11.80
2024-03-22T06:00:05.486Z,11.81
2024-03-22T06:02:58.307Z,11.87
2024-03-22T06:05:51.131Z,11.93
2024-03-22T06:08:36.230Z,11.96
2024-03-22T06:11:12.650Z,12.00
2024-03-22T06:13:45.217Z,12.03
2024-03-22T06:17:14.109Z,12.07
2024-03-22T06:20:17.325Z,12.14
2024-03-22T06:23:37.007Z,12.20
2024-03-22T06:27:05.914Z,12.23
2024-03-22T06:30:34.559Z,12.25
2024-03-22T06:33:44.334Z,12.29
2024-03-22T06:36:16.093Z,12.32
2024-03-22T06:39:34.773Z,12.33
2024-03-22T06:42:36.395Z,12.33
2024-03-22T06:45:22.387Z,12.35
2024-03-22T06:48:31.019Z,12.36
2024-03-22T06:51:39.024Z,12.38
2024-03-22T06:54:25.123Z,12.38
2024-03-22T06:57:24.444Z,12.41
2024-03-22T06:59:56.295Z,12.42
2024-03-22T07:02:47.620Z,12.43
2024-03-22T07:05:19.283Z,12.43
2024-03-22T07:07:48.116Z,12.42
2024-03-22T07:10:57.147Z,12.42
2024-03-22T07:13:25.989Z,12.40
2024-03-22T07:16:07.223Z,12.37
2024-03-22T07:19:21.760Z,12.35
2024-03-22T07:22:25.899Z,12.32
2024-03-22T07:25:50.804Z,12.27
2024-03-22T07:28:43.439Z,12.21
2024-03-22T07:32:01.268Z,12.18
2024-03-22T07:35:29.961Z,12.12
2024-03-22T07:38:45.278Z,12.05
2024-03-22T07:41:14.252Z,12.01
2024-03-22T07:43:45.806Z,11.98
2024-03-22T07:46:38.064Z,11.92
2024-03-22T07:49:16.092Z,11.85
2024-03-22T07:52:08.572Z,11.80
2024-03-22T07:55:04.576Z,11.73
2024-03-22T07:57:52.773Z,11.66
2024-03-22T08:00:28.311Z,11.61
2024-03-22T08:02:59.968Z,11.55
2024-03-22T08:05:28.925Z,11.49
2024-03-22T08:07:57.727Z,11.42
2024-03-22T08:10:46.439Z,11.36
2024-03-22T08:13:19.007Z,11.30
2024-03-22T08:16:00.969Z,11.25
2024-03-22T08:19:30.134Z,11.19
2024-03-22T08:22:39.047Z,11.14
2024-03-22T08:25:33.279Z,11.11
2024-03-22T08:28:52.319Z,11.07
2024-03-22T08:31:44.276Z,11.03
2024-03-22T08:34:39.296Z,11.01
2024-03-22T08:37:30.880Z,10.99
2024-03-22T08:40:08.740Z,10.95
2024-03-22T08:43:20.973Z,10.91
2024-03-22T08:46:33.227Z,10.87
2024-03-22T08:49:55.272Z,10.84
2024-03-22T08:53:10.412Z,10.81
2024-03-22T08:56:09.985Z,10.80
2024-03-22T08:58:42.304Z,10.80
2024-03-22T09:01:13.845Z,10.81
2024-03-22T09:03:50.582Z,10.83
2024-03-22T09:06:31.903Z,10.85
2024-03-22T09:09:32.467Z,10.86
2024-03-22T09:12:42.954Z,10.89
2024-03-22T09:15:11.936Z,10.92
2024-03-22T09:18:41.045Z,10.95
2024-03-22T09:21:59.886Z,10.97
2024-03-22T09:25:08.671Z,11.02
2024-03-22T09:27:42.522Z,11.05
2024-03-22T09:30:21.317Z,11.08
2024-03-22T09:32:50.186Z,11.10
2024-03-22T09:35:29.258Z,11.13
2024-03-22T09:38:58.078Z,11.14
2024-03-22T09:41:40.429Z,11.15
2024-03-22T09:44:34.977Z,11.18
2024-03-22T09:48:03.831Z,11.21
2024-03-22T09:51:32.329Z,11.23
2024-03-22T09:54:20.076Z,11.27
2024-03-22T09:57:33.055Z,11.31
2024-03-22T10:00:42.121Z,11.36
2024-03-22T10:03:51.145Z,11.37
2024-03-22T10:07:03.587Z,11.40
2024-03-22T10:09:57.109Z,11.45
2024-03-22T10:12:57.922Z,11.48
2024-03-22T10:15:44.499Z,11.51
2024-03-22T10:18:38.922Z,11.53
2024-03-22T10:21:14.992Z,11.50
2024-03-22T10:23:54.310Z,11.51
2024-03-22T10:26:38.409Z,11.52
2024-03-22T10:30:02.927Z,11.52
2024-03-22T10:32:34.810Z,11.55
2024-03-22T10:35:08.950Z,11.59
2024-03-22T10:37:37.893Z,11.63
2024-03-22T10:40:33.036Z,11.66
2024-03-22T10:43:40.521Z,11.70
2024-03-22T10:46:25.860Z,11.75
2024-03-22T10:48:59.826Z,11.76
2024-03-22T10:51:55.107Z,11.75
2024-03-22T10:54:47.586Z,11.73
2024-03-22T10:57:19.781Z,11.71
2024-03-22T10:59:58.255Z,11.68
2024-03-22T11:02:30.233Z,11.65
2024-03-22T11:05:01.926Z,11.60
2024-03-22T11:07:37.636Z,11.53
2024-03-22T11:10:10.300Z,11.47
2024-03-22T11:12:40.845Z,11.43
2024-03-22T11:15:14.199Z,11.38
2024-03-22T11:17:45.666Z,11.31
2024-03-22T11:20:14.175Z,11.23
2024-03-22T11:22:46.502Z,11.15
2024-03-22T11:25:31.364Z,11.09
2024-03-22T11:28:02.553Z,11.02
2024-03-22T11:30:42.984Z,10.98
2024-03-22T11:33:33.039Z,10.95
2024-03-22T11:36:52.554Z,10.91
2024-03-22T11:40:21.483Z,10.87
2024-03-22T11:43:13.582Z,10.80
2024-03-22T11:46:02.937Z,10.75
2024-03-22T11:48:46.289Z,10.71
2024-03-22T11:51:18.256Z,10.68
2024-03-22T11:54:07.893Z,10.66
2024-03-22T11:56:38.339Z,10.64
2024-03-22T11:59:10.181Z,10.62
2024-03-22T12:02:07.095Z,10.60
2024-03-22T12:04:38.706Z,10.56
2024-03-22T12:07:19.620Z,10.52
2024-03-22T12:09:48.908Z,10.49
2024-03-22T12:12:27.367Z,10.46
2024-03-22T12:14:55.948Z,10.42
2024-03-22T12:17:37.917Z,10.39
2024-03-22T12:20:23.970Z,10.35
2024-03-22T12:22:52.194Z,10.34
2024-03-22T12:25:35.026Z,10.31
2024-03-22T12:28:16.570Z,10.29
2024-03-22T12:30:48.398Z,10.26
2024-03-22T12:33:16.898Z,10.21
2024-03-22T12:35:45.809Z,10.15
2024-03-22T12:38:15.551Z,10.12
2024-03-22T12:40:44.183Z,10.13
2024-03-22T12:43:25.902Z,10.13
2024-03-22T12:45:54.544Z,10.13
2024-03-22T12:48:38.577Z,10.15
2024-03-22T12:51:07.885Z,10.17
2024-03-22T12:53:36.275Z,10.20
2024-03-22T12:56:07.533Z,10.23
2024-03-22T12:59:11.061Z,10.26
2024-03-22T13:02:19.135Z,10.31
2024-03-22T13:05:14.019Z,10.35
2024-03-22T13:07:51.577Z,10.38
2024-03-22T13:10:48.970Z,10.41
2024-03-22T13:13:18.596Z,10.43
2024-03-22T13:16:08.914Z,10.48
2024-03-22T13:18:50.838Z,10.55
2024-03-22T13:21:19.408Z,10.58
2024-03-22T13:23:48.765Z,10.61
2024-03-22T13:26:56.451Z,10.68
2024-03-22T13:29:28.823Z,10.77
2024-03-22T13:32:01.768Z,10.83
2024-03-22T13:34:31.220Z,10.85
2024-03-22T13:37:00.267Z,10.89
2024-03-22T13:39:54.306Z,10.89
2024-03-22T13:43:23.316Z,10.90
2024-03-22T13:46:19.188Z,10.94
2024-03-22T13:49:38.543Z,10.95
2024-03-22T13:53:07.468Z,10.97
2024-03-22T13:56:36.650Z,10.98
2024-03-22T13:59:18.009Z,11.02
2024-03-22T14:02:00.127Z,11.03
2024-03-22T14:04:42.724Z,11.02
2024-03-22T14:07:11.681Z,11.00
2024-03-22T14:09:45.417Z,10.93
2024-03-22T14:12:17.466Z,10.88
2024-03-22T14:15:16.308Z,10.86
2024-03-22T14:17:57.988Z,10.87
2024-03-22T14:20:46.784Z,10.89
2024-03-22T14:23:24.595Z,10.91
2024-03-22T14:25:57.417Z,10.91
2024-03-22T14:28:41.818Z,10.88
2024-03-22T14:32:13.407Z,10.84
2024-03-22T14:35:34.497Z,10.83
2024-03-22T14:38:46.429Z,10.81
2024-03-22T14:41:43.953Z,10.76
2024-03-22T14:44:24.488Z,10.69
2024-03-22T14:46:56.557Z,10.63
2024-03-22T14:49:28.127Z,10.61
2024-03-22T14:51:59.931Z,10.59
2024-03-22T14:54:48.728Z,10.54
2024-03-22T14:57:38.480Z,10.51
2024-03-22T15:00:56.824Z,10.46
2024-03-22T15:04:00.910Z,10.41
2024-03-22T15:07:29.803Z,10.38
2024-03-22T15:10:31.713Z,10.34
2024-03-22T15:14:00.834Z,10.31
2024-03-22T15:16:32.950Z,10.29
2024-03-22T15:19:31.831Z,10.28
2024-03-22T15:22:10.789Z,10.26
2024-03-22T15:25:10.118Z,10.24
2024-03-22T15:27:39.021Z,10.21
2024-03-22T15:30:17.868Z,10.17
2024-03-22T15:32:50.237Z,10.16
2024-03-22T15:35:18.767Z,10.15
2024-03-22T15:37:48.277Z,10.13
2024-03-22T15:40:16.838Z,10.10
2024-03-22T15:42:45.541Z,10.09
2024-03-22T15:45:14.590Z,10.08
2024-03-22T15:47:43.169Z,10.07
2024-03-22T15:50:12.277Z,10.07
2024-03-22T15:53:12.863Z,10.06
2024-03-22T15:55:44.973Z,10.05
2024-03-22T15:58:16.850Z,10.06
2024-03-22T16:00:54.536Z,10.07
2024-03-22T16:03:33.962Z,10.09
2024-03-22T16:06:31.773Z,10.13
2024-03-22T16:09:24.925Z,10.16
2024-03-22T16:12:53.598Z,10.21
2024-03-22T16:16:07.366Z,10.27
2024-03-22T16:19:15.932Z,10.34
2024-03-22T16:22:05.122Z,10.40
2024-03-22T16:24:37.734Z,10.44
2024-03-22T16:27:09.828Z,10.47
2024-03-22T16:29:51.105Z,10.50
2024-03-22T16:32:23.867Z,10.51
2024-03-22T16:35:02.759Z,10.53
2024-03-22T16:37:40.826Z,10.58
2024-03-22T16:40:13.418Z,10.63
2024-03-22T16:42:52.074Z,10.68
2024-03-22T16:45:44.473Z,10.73
2024-03-22T16:48:21.747Z,10.79
2024-03-22T16:51:00.703Z,10.82
2024-03-22T16:54:12.672Z,10.87
2024-03-22T16:56:45.379Z,10.90
2024-03-22T16:59:31.881Z,10.94
2024-03-22T17:02:03.685Z,10.99
2024-03-22T17:05:12.842Z,11.00
2024-03-22T17:07:51.693Z,11.01
2024-03-22T17:10:20.944Z,11.05
2024-03-22T17:12:49.561Z,11.07
2024-03-22T17:15:18.179Z,11.09
2024-03-22T17:17:49.322Z,11.10
2024-03-22T17:20:21.085Z,11.08
2024-03-22T17:22:49.774Z,11.08
2024-03-22T17:25:18.453Z,11.09
2024-03-22T17:27:47.603Z,11.10
2024-03-22T17:30:16.620Z,11.12
2024-03-22T17:32:54.232Z,11.14
2024-03-22T17:35:25.571Z,11.16
2024-03-22T17:38:13.136Z,11.16
2024-03-22T17:40:41.825Z,11.13
2024-03-22T17:43:16.329Z,11.10
2024-03-22T17:46:25.166Z,11.09
2024-03-22T17:48:58.063Z,11.06
2024-03-22T17:52:26.866Z,11.00
2024-03-22T17:55:28.536Z,10.96
2024-03-22T17:58:00.468Z,10.95
2024-03-22T18:00:42.174Z,10.97
2024-03-22T18:03:13.831Z,10.97
2024-03-22T18:06:05.900Z,10.99
2024-03-22T18:08:38.411Z,10.99
2024-03-22T18:11:07.600Z,10.96
2024-03-22T18:14:16.796Z,10.94
2024-03-22T18:16:48.783Z,10.93
2024-03-22T18:19:18.222Z,10.93
2024-03-22T18:22:10.573Z,10.94
2024-03-22T18:25:29.971Z,10.96
2024-03-22T18:28:28.072Z,10.96
2024-03-22T18:31:32.584Z,10.97
2024-03-22T18:34:27.811Z,10.95
2024-03-22T18:37:21.685Z,10.91
2024-03-22T18:40:15.855Z,10.95
2024-03-22T18:43:44.980Z,11.01
2024-03-22T18:46:49.797Z,11.05
2024-03-22T18:49:41.893Z,11.04
2024-03-22T18:53:10.751Z,11.06
2024-03-22T18:56:20.276Z,11.06
2024-03-22T18:59:32.508Z,11.08
2024-03-22T19:02:15.289Z,11.09
2024-03-22T19:05:13.288Z,11.13
2024-03-22T19:08:23.175Z,11.22
2024-03-22T19:10:54.813Z,11.29
2024-03-22T19:13:56.098Z,11.33
2024-03-22T19:16:44.828Z,11.38
2024-03-22T19:19:25.818Z,11.43
2024-03-22T19:22:17.733Z,11.49
2024-03-22T19:25:35.798Z,11.52
2024-03-22T19:28:43.923Z,11.51
2024-03-22T19:31:51.672Z,11.52
2024-03-22T19:34:33.829Z,11.53
2024-03-22T19:37:25.654Z,11.56
2024-03-22T19:40:20.285Z,11.58
2024-03-22T19:42:49.131Z,11.60
2024-03-22T19:46:03.148Z,11.62
2024-03-22T19:48:45.859Z,11.64
2024-03-22T19:51:54.571Z,11.64
2024-03-22T19:54:24.770Z,11.67
2024-03-22T19:57:27.252Z,11.68
2024-03-22T20:00:00.265Z,11.72
2024-03-22T20:03:14.610Z,11.72
2024-03-22T20:05:47.551Z,11.74
2024-03-22T20:08:16.316Z,11.75
2024-03-22T20:10:44.713Z,11.75
2024-03-22T20:13:23.837Z,11.74
2024-03-22T20:16:37.135Z,11.74
2024-03-22T20:19:09.090Z,11.78
2024-03-22T20:21:58.104Z,11.82
2024-03-22T20:24:39.268Z,11.90
2024-03-22T20:28:08.783Z,11.95
2024-03-22T20:30:40.871Z,11.94
2024-03-22T20:33:13.139Z,11.95
2024-03-22T20:36:05.950Z,11.93
2024-03-22T20:39:05.336Z,11.91
2024-03-22T20:42:04.951Z,11.93
2024-03-22T20:44:56.783Z,11.97
2024-03-22T20:48:26.507Z,12.00
2024-03-22T20:51:38.080Z,12.00
2024-03-22T20:55:06.151Z,12.02
2024-03-22T20:58:35.174Z,11.98
2024-03-22T21:02:04.116Z,11.94
2024-03-22T21:05:31.351Z,11.90
2024-03-22T21:09:00.982Z,11.89
2024-03-22T21:12:21.968Z,11.89
2024-03-22T21:15:51.258Z,11.94
2024-03-22T21:19:11.411Z,11.95
2024-03-22T21:22:41.090Z,11.95
2024-03-22T21:26:09.622Z,11.97
2024-03-22T21:29:29.726Z,12.05
2024-03-22T21:32:58.494Z,12.07
2024-03-22T21:36:26.887Z,12.13
2024-03-22T21:39:49.327Z,12.18
2024-03-22T21:42:58.066Z,12.18
2024-03-22T21:46:19.827Z,12.17
2024-03-22T21:49:48.480Z,12.16
2024-03-22T21:53:17.043Z,12.16
2024-03-22T21:56:46.199Z,12.20
2024-03-22T22:00:14.823Z,12.23
2024-03-22T22:03:44.831Z,12.20
2024-03-22T22:07:17.652Z,12.19
2024-03-22T22:10:39.634Z,12.20
2024-03-22T22:14:08.984Z,12.17
2024-03-22T22:17:37.819Z,12.13
2024-03-22T22:21:07.559Z,12.11
2024-03-22T22:24:36.881Z,12.12
2024-03-22T22:27:54.941Z,12.12
2024-03-22T22:31:25.821Z,12.09
2024-03-22T22:34:56.440Z,12.04
2024-03-22T22:38:25.667Z,11.99
2024-03-22T22:41:54.824Z,12.00
2024-03-22T22:45:23.756Z,11.99
2024-03-22T22:48:53.339Z,11.97
2024-03-22T22:52:21.978Z,11.98
2024-03-22T22:55:50.534Z,11.99
2024-03-22T22:59:19.356Z,12.04
2024-03-22T23:02:47.024Z,12.03
2024-03-22T23:06:04.385Z,12.03
2024-03-22T23:09:32.889Z,12.02
2024-03-22T23:13:00.299Z,12.00
2024-03-22T23:16:29.649Z,11.98
2024-03-22T23:19:58.480Z,11.98
2024-03-22T23:23:27.474Z,11.98
2024-03-22T23:26:57.213Z,11.97
2024-03-22T23:30:16.379Z,11.94
2024-03-22T23:33:39.283Z,11.96
2024-03-22T23:37:08.535Z,11.96
2024-03-22T23:40:37.579Z,11.95
2024-03-22T23:44:06.630Z,11.90
2024-03-22T23:46:54.458Z,11.85
2024-03-22T23:50:23.455Z,11.81
2024-03-22T23:53:52.659Z,11.78
2024-03-22T23:57:21.929Z,11.77
